createdAt,value
2019-01-27T00:02:03.100Z,98377.37
2019-01-27T00:04:34.507Z,98370.70
2019-01-27T00:07:05.639Z,98375.81
2019-01-27T00:09:36.282Z,98370.85
2019-01-27T00:12:07.031Z,98364.12
2019-01-27T00:14:38.542Z,98365.01
2019-01-27T00:17:09.076Z,98355.42
2019-01-27T00:19:40.152Z,98358.81
2019-01-27T00:22:11.394Z,98360.97
2019-01-27T00:24:42.121Z,98354.70
2019-01-27T00:27:12.693Z,98347.94
2019-01-27T00:29:44.152Z,98344.56
2019-01-27T00:32:15.641Z,98343.62
2019-01-27T00:34:46.404Z,98342.87
2019-01-27T00:37:17.236Z,98341.81
2019-01-27T00:39:48.249Z,98331.29
2019-01-27T00:42:19.261Z,98327.52
2019-01-27T00:44:50.174Z,98322.45
2019-01-27T00:47:21.146Z,98317.38
2019-01-27T00:49:52.173Z,98307.52
2019-01-27T00:52:24.653Z,98301.86
2019-01-27T00:54:57.100Z,98301.06
2019-01-27T00:57:28.190Z,98297.64
2019-01-27T01:00:00.250Z,98296.36
2019-01-27T01:02:30.857Z,98304.14
2019-01-27T01:05:03.308Z,98298.73
2019-01-27T01:07:34.353Z,98301.94
2019-01-27T01:10:06.808Z,98298.80
2019-01-27T01:12:39.346Z,98305.23
2019-01-27T01:15:11.945Z,98296.13
2019-01-27T01:17:43.939Z,98288.06
2019-01-27T01:20:17.995Z,98277.78
2019-01-27T01:22:50.024Z,98273.87
2019-01-27T01:25:22.154Z,98268.30
2019-01-27T01:27:54.496Z,98270.88
2019-01-27T01:30:27.964Z,98267.04
2019-01-27T01:32:59.458Z,98267.08
2019-01-27T01:35:34.049Z,98271.78
2019-01-27T01:38:06.149Z,98273.42
2019-01-27T01:40:38.528Z,98272.28
2019-01-27T01:43:09.469Z,98275.09
2019-01-27T01:45:41.266Z,98266.42
2019-01-27T01:48:12.861Z,98268.30
2019-01-27T01:50:44.482Z,98261.26
2019-01-27T01:53:14.850Z,98250.32
2019-01-27T01:55:47.381Z,98232.03
2019-01-27T01:58:18.595Z,98232.03
2019-01-27T02:00:49.415Z,98223.75
2019-01-27T02:03:22.082Z,98205.71
2019-01-27T02:05:54.411Z,98205.71
2019-01-27T02:08:25.551Z,98221.17
2019-01-27T02:10:56.616Z,98219.97
2019-01-27T02:13:27.569Z,98219.97
2019-01-27T02:16:16.434Z,98215.46
2019-01-27T02:18:47.763Z,98201.34
2019-01-27T02:21:19.616Z,98202.63
2019-01-27T02:23:52.547Z,98202.63
2019-01-27T02:26:23.647Z,98202.34
2019-01-27T02:28:54.052Z,98202.34
2019-01-27T02:31:25.503Z,98207.98
2019-01-27T02:33:56.702Z,98207.98
2019-01-27T02:36:27.611Z,98204.64
2019-01-27T02:38:58.678Z,98204.64
2019-01-27T02:41:29.690Z,98197.95
2019-01-27T02:44:00.768Z,98200.97
2019-01-27T02:46:31.652Z,98189.22
2019-01-27T02:49:02.642Z,98190.45
2019-01-27T02:51:33.704Z,98187.17
2019-01-27T02:54:05.243Z,98187.17
2019-01-27T02:56:37.696Z,98182.16
2019-01-27T02:59:09.785Z,98177.11
2019-01-27T03:01:40.690Z,98183.84
2019-01-27T03:04:11.767Z,98180.94
2019-01-27T03:07:17.140Z,98177.59
2019-01-27T03:09:50.795Z,98178.87
2019-01-27T03:12:23.855Z,98177.16
2019-01-27T03:14:56.854Z,98177.16
2019-01-27T03:17:27.890Z,98166.69
2019-01-27T03:19:59.815Z,98167.55
2019-01-27T03:22:32.008Z,98167.55
2019-01-27T03:25:05.726Z,98164.58
2019-01-27T03:27:36.101Z,98165.75
2019-01-27T03:30:12.425Z,98167.37
2019-01-27T03:32:43.884Z,98154.36
2019-01-27T03:35:16.986Z,98156.52
2019-01-27T03:37:48.944Z,98156.52
2019-01-27T03:40:19.979Z,98162.88
2019-01-27T03:42:51.009Z,98153.73
2019-01-27T03:45:21.906Z,98153.73
2019-01-27T03:47:53.016Z,98155.08
2019-01-27T03:50:23.981Z,98151.32
2019-01-27T03:52:54.894Z,98147.97
2019-01-27T03:55:27.212Z,98145.47
2019-01-27T03:58:00.318Z,98151.41
2019-01-27T04:00:31.105Z,98151.83
2019-01-27T04:03:02.121Z,98149.27
2019-01-27T04:05:33.069Z,98147.21
2019-01-27T04:08:06.448Z,98140.53
2019-01-27T04:10:37.026Z,98136.34
2019-01-27T04:13:09.155Z,98133.02
2019-01-27T04:15:42.234Z,98132.63
2019-01-27T04:18:12.879Z,98131.33
2019-01-27T04:20:44.164Z,98125.00
2019-01-27T04:23:15.511Z,98126.70
2019-01-27T04:25:46.198Z,98116.63
2019-01-27T04:28:17.259Z,98115.00
2019-01-27T04:30:48.100Z,98110.86
2019-01-27T04:33:19.112Z,98110.05
2019-01-27T04:35:52.134Z,98113.42
2019-01-27T04:38:25.239Z,98110.47
2019-01-27T04:40:58.212Z,98102.94
2019-01-27T04:43:29.125Z,98103.30
2019-01-27T04:46:00.295Z,98094.95
2019-01-27T04:48:34.902Z,98091.64
2019-01-27T04:51:07.291Z,98075.31
2019-01-27T04:53:38.506Z,98074.92
2019-01-27T04:56:09.431Z,98068.22
2019-01-27T04:58:40.292Z,98061.09
2019-01-27T05:01:11.348Z,98062.39
2019-01-27T05:03:48.157Z,98062.41
2019-01-27T05:06:19.292Z,98054.45
2019-01-27T05:08:51.326Z,98052.79
2019-01-27T05:11:23.324Z,98047.38
2019-01-27T05:13:54.453Z,98046.11
2019-01-27T05:16:25.449Z,98037.31
2019-01-27T05:18:56.312Z,98042.34
2019-01-27T05:21:27.528Z,98036.45
2019-01-27T05:23:58.326Z,98036.88
2019-01-27T05:26:29.485Z,98036.45
2019-01-27T05:29:00.482Z,98025.53
2019-01-27T05:31:31.464Z,98033.52
2019-01-27T05:34:03.427Z,98021.75
2019-01-27T05:36:36.503Z,98010.80
2019-01-27T05:39:09.096Z,98009.98
2019-01-27T05:41:41.443Z,98008.70
2019-01-27T05:44:12.469Z,98012.49
2019-01-27T05:46:44.468Z,98006.64
2019-01-27T05:49:16.497Z,97998.27
2019-01-27T05:51:48.585Z,98007.09
2019-01-27T05:54:20.241Z,98007.92
2019-01-27T05:56:56.451Z,98000.38
2019-01-27T05:59:25.464Z,97996.20
2019-01-27T06:01:58.657Z,98002.11
2019-01-27T06:04:30.643Z,98002.55
2019-01-27T06:07:01.090Z,97999.61
2019-01-27T06:09:31.629Z,98001.30
2019-01-27T06:12:03.686Z,98002.16
2019-01-27T06:14:36.674Z,97989.98
2019-01-27T06:17:07.594Z,97985.38
2019-01-27T06:19:38.629Z,97984.55
2019-01-27T06:22:09.675Z,97984.14
2019-01-27T06:24:40.779Z,97981.23
2019-01-27T06:27:11.781Z,97990.02
2019-01-27T06:29:42.715Z,97971.17
2019-01-27T06:32:21.831Z,97971.58
2019-01-27T06:34:53.933Z,97974.95
2019-01-27T06:37:25.088Z,97976.21
2019-01-27T06:39:55.719Z,97974.93
2019-01-27T06:42:26.839Z,97973.27
2019-01-27T06:44:57.679Z,97969.91
2019-01-27T06:47:29.954Z,97977.46
2019-01-27T06:50:01.876Z,97975.34
2019-01-27T06:52:32.751Z,97964.03
2019-01-27T06:55:04.759Z,97972.02
2019-01-27T06:57:37.916Z,97961.55
2019-01-27T07:00:34.760Z,97957.77
2019-01-27T07:03:21.427Z,97955.25
2019-01-27T07:05:59.986Z,97950.23
2019-01-27T07:08:42.800Z,97955.23
2019-01-27T07:11:37.616Z,97947.28
2019-01-27T07:14:34.101Z,97948.95
2019-01-27T07:17:28.233Z,97963.61
2019-01-27T07:20:20.873Z,97960.69
2019-01-27T07:23:10.079Z,97966.52
2019-01-27T07:26:00.625Z,97969.86
2019-01-27T07:28:40.274Z,97958.98
2019-01-27T07:31:37.912Z,97948.89
2019-01-27T07:34:28.803Z,97942.22
2019-01-27T07:37:23.893Z,97926.30
2019-01-27T07:40:33.877Z,97923.78
2019-01-27T07:43:17.088Z,97909.12
2019-01-27T07:45:52.364Z,97911.60
2019-01-27T07:48:41.569Z,97912.47
2019-01-27T07:51:30.862Z,97911.64
2019-01-27T07:54:20.590Z,97915.00
2019-01-27T07:57:17.472Z,97911.63
2019-01-27T08:00:03.684Z,97900.34
2019-01-27T08:02:52.979Z,97892.80
2019-01-27T08:05:47.222Z,97888.21
2019-01-27T08:08:38.986Z,97889.89
2019-01-27T08:11:34.172Z,97891.14
2019-01-27T08:14:26.120Z,97879.41
2019-01-27T08:17:13.411Z,97883.19
2019-01-27T08:20:04.041Z,97890.30
2019-01-27T08:23:04.977Z,97890.73
2019-01-27T08:25:59.890Z,97884.42
2019-01-27T08:28:41.645Z,97868.50
2019-01-27T08:31:22.422Z,97862.23
2019-01-27T08:34:12.257Z,97868.91
2019-01-27T08:36:58.697Z,97863.02
2019-01-27T08:39:40.295Z,97854.66
2019-01-27T08:42:29.969Z,97869.73
2019-01-27T08:45:23.338Z,97865.11
2019-01-27T08:47:56.204Z,97873.89
2019-01-27T08:50:27.040Z,97876.84
2019-01-27T08:52:57.439Z,97871.83
2019-01-27T08:55:28.386Z,97866.80
2019-01-27T08:58:01.082Z,97852.50
2019-01-27T09:00:38.073Z,97853.30
2019-01-27T09:03:22.777Z,97858.32
2019-01-27T09:06:04.758Z,97867.98
2019-01-27T09:08:55.391Z,97867.95
2019-01-27T09:11:44.762Z,97878.03
2019-01-27T09:14:41.832Z,97880.55
2019-01-27T09:17:32.329Z,97880.52
2019-01-27T09:20:28.897Z,97875.48
2019-01-27T09:23:22.496Z,97865.84
2019-01-27T09:26:13.247Z,97855.73
2019-01-27T09:29:02.215Z,97853.67
2019-01-27T09:31:41.829Z,97865.33
2019-01-27T09:34:28.707Z,97859.37
2019-01-27T09:37:27.827Z,97861.83
2019-01-27T09:40:14.394Z,97862.95
2019-01-27T09:43:08.573Z,97846.11
2019-01-27T09:46:05.189Z,97837.19
2019-01-27T09:48:49.547Z,97819.81
2019-01-27T09:51:34.878Z,97822.31
2019-01-27T09:54:19.204Z,97834.55
2019-01-27T09:57:01.427Z,97842.95
2019-01-27T09:59:54.677Z,97850.02
2019-01-27T10:02:34.948Z,97857.56
2019-01-27T10:05:43.644Z,97853.76
2019-01-27T10:08:27.690Z,97854.17
2019-01-27T10:11:26.556Z,97842.75
2019-01-27T10:14:19.566Z,97823.64
2019-01-27T10:17:21.618Z,97823.64
2019-01-27T10:20:23.588Z,97825.59
2019-01-27T10:23:06.136Z,97821.23
2019-01-27T10:25:52.150Z,97813.66
2019-01-27T10:28:36.951Z,97804.23
2019-01-27T10:31:33.548Z,97800.86
2019-01-27T10:34:24.419Z,97798.41
2019-01-27T10:37:00.821Z,97780.14
2019-01-27T10:39:57.680Z,97787.06
2019-01-27T10:42:46.850Z,97795.83
2019-01-27T10:45:46.655Z,97797.32
2019-01-27T10:48:42.568Z,97788.59
2019-01-27T10:51:30.823Z,97788.70
2019-01-27T10:54:21.829Z,97786.87
2019-01-27T10:57:16.566Z,97784.19
2019-01-27T10:59:57.983Z,97768.95
2019-01-27T11:02:57.757Z,97755.77
2019-01-27T11:05:45.027Z,97752.09
2019-01-27T11:08:27.795Z,97748.41
2019-01-27T11:11:10.300Z,97734.15
2019-01-27T11:14:05.094Z,97730.36
2019-01-27T11:17:02.675Z,97718.58
2019-01-27T11:19:51.936Z,97720.27
2019-01-27T11:22:53.727Z,97711.92
2019-01-27T11:25:43.084Z,97711.92
2019-01-27T11:28:30.805Z,97699.73
2019-01-27T11:31:15.615Z,97691.20
2019-01-27T11:34:11.809Z,97682.28
2019-01-27T11:36:54.391Z,97693.15
2019-01-27T11:39:47.608Z,97699.37
2019-01-27T11:42:38.612Z,97679.08
2019-01-27T11:45:32.609Z,97667.34
2019-01-27T11:48:15.924Z,97665.73
2019-01-27T11:50:54.980Z,97671.30
2019-01-27T11:53:28.176Z,97672.44
2019-01-27T11:55:59.184Z,97665.66
2019-01-27T11:58:30.227Z,97652.42
2019-01-27T12:01:03.402Z,97652.42
2019-01-27T12:03:35.274Z,97645.80
2019-01-27T12:06:06.264Z,97636.41
2019-01-27T12:08:37.129Z,97639.87
2019-01-27T12:11:08.280Z,97630.48
2019-01-27T12:13:39.210Z,97630.48
2019-01-27T12:16:10.193Z,97629.05
2019-01-27T12:18:43.249Z,97629.05
2019-01-27T12:21:13.892Z,97634.19
2019-01-27T12:23:45.372Z,97634.19
2019-01-27T12:26:17.338Z,97632.50
2019-01-27T12:28:50.393Z,97638.38
2019-01-27T12:31:21.840Z,97638.38
2019-01-27T12:33:52.281Z,97636.91
2019-01-27T12:36:23.417Z,97641.97
2019-01-27T12:38:54.380Z,97624.42
2019-01-27T12:41:26.032Z,97623.17
2019-01-27T12:43:56.624Z,97617.09
2019-01-27T12:46:27.567Z,97617.98
2019-01-27T12:48:58.343Z,97601.84
2019-01-27T12:51:29.740Z,97587.26
2019-01-27T12:54:00.372Z,97587.26
2019-01-27T12:56:31.256Z,97591.98
2019-01-27T12:59:03.934Z,97609.14
2019-01-27T13:01:34.390Z,97609.14
2019-01-27T13:04:07.624Z,97611.48
2019-01-27T13:06:38.558Z,97611.48
2019-01-27T13:09:11.438Z,97603.25
2019-01-27T13:11:42.550Z,97599.10
2019-01-27T13:14:13.442Z,97607.47
2019-01-27T13:16:44.663Z,97607.47
2019-01-27T13:19:17.793Z,97601.91
2019-01-27T13:21:50.558Z,97587.27
2019-01-27T13:24:23.695Z,97587.27
2019-01-27T13:26:54.460Z,97588.66
2019-01-27T13:29:26.651Z,97577.31
2019-01-27T13:31:59.311Z,97566.36
2019-01-27T13:34:30.506Z,97566.41
2019-01-27T13:37:01.195Z,97565.84
2019-01-27T13:39:31.676Z,97565.84
2019-01-27T13:42:03.018Z,97571.50
2019-01-27T13:44:33.693Z,97571.50
2019-01-27T13:47:04.675Z,97570.75
2019-01-27T13:49:35.617Z,97561.17
2019-01-27T13:52:06.640Z,97570.14
2019-01-27T13:54:38.016Z,97570.14
2019-01-27T13:57:08.654Z,97581.11
2019-01-27T13:59:39.679Z,97559.62
2019-01-27T14:02:10.617Z,97558.69
2019-01-27T14:04:48.300Z,97557.48
2019-01-27T14:07:13.809Z,97562.28
2019-01-27T14:09:46.875Z,97562.28
2019-01-27T14:12:17.616Z,97570.02
2019-01-27T14:14:50.854Z,97574.27
2019-01-27T14:17:21.912Z,97558.74
2019-01-27T14:19:52.304Z,97548.15
2019-01-27T14:22:23.752Z,97551.61
2019-01-27T14:24:54.711Z,97552.14
2019-01-27T14:27:25.898Z,97548.36
2019-01-27T14:29:57.406Z,97555.84
2019-01-27T14:32:27.863Z,97555.84
2019-01-27T14:35:00.287Z,97563.75
2019-01-27T14:37:32.860Z,97565.59
2019-01-27T14:40:04.987Z,97559.33
2019-01-27T14:42:47.682Z,97547.60
2019-01-27T14:45:20.374Z,97551.88
2019-01-27T14:47:50.995Z,97550.20
2019-01-27T14:50:31.801Z,97547.72
2019-01-27T14:53:05.670Z,97544.78
2019-01-27T14:55:38.936Z,97543.98
2019-01-27T14:58:10.429Z,97545.28
2019-01-27T15:00:42.306Z,97551.97
2019-01-27T15:03:14.866Z,97553.03
2019-01-27T15:05:45.991Z,97557.06
2019-01-27T15:08:16.888Z,97540.33
2019-01-27T15:10:48.231Z,97540.33
2019-01-27T15:13:20.046Z,97541.47
2019-01-27T15:15:54.525Z,97548.10
2019-01-27T15:18:27.191Z,97545.66
2019-01-27T15:21:05.456Z,97539.55
2019-01-27T15:23:38.041Z,97536.27
2019-01-27T15:26:11.008Z,97542.22
2019-01-27T15:28:42.819Z,97541.03
2019-01-27T15:31:13.647Z,97535.68
2019-01-27T15:33:45.699Z,97526.92
2019-01-27T15:36:18.052Z,97530.01
2019-01-27T15:38:49.244Z,97532.20
2019-01-27T15:41:20.158Z,97529.30
2019-01-27T15:43:53.708Z,97527.75
2019-01-27T15:46:25.098Z,97529.42
2019-01-27T15:48:56.430Z,97531.81
2019-01-27T15:51:27.218Z,97526.88
2019-01-27T15:53:58.223Z,97523.70
2019-01-27T15:56:29.231Z,97520.94
2019-01-27T15:59:00.194Z,97538.22
2019-01-27T16:01:31.613Z,97549.17
2019-01-27T16:04:02.229Z,97545.45
2019-01-27T16:06:33.518Z,97537.95
2019-01-27T16:09:05.311Z,97538.03
2019-01-27T16:11:37.520Z,97527.15
2019-01-27T16:14:08.406Z,97531.78
2019-01-27T16:16:40.336Z,97537.58
2019-01-27T16:19:15.014Z,97536.38
2019-01-27T16:21:47.403Z,97525.00
2019-01-27T16:24:26.264Z,97521.18
2019-01-27T16:26:58.450Z,97526.58
2019-01-27T16:29:43.304Z,97524.04
2019-01-27T16:32:22.147Z,97520.62
2019-01-27T16:34:57.179Z,97513.33
2019-01-27T16:37:29.380Z,97502.03
2019-01-27T16:40:00.437Z,97509.20
2019-01-27T16:42:31.245Z,97508.83
2019-01-27T16:45:02.324Z,97515.18
2019-01-27T16:47:33.486Z,97509.75
2019-01-27T16:50:05.387Z,97499.23
2019-01-27T16:52:38.467Z,97497.56
2019-01-27T16:55:11.849Z,97487.89
2019-01-27T16:57:43.477Z,97484.89
2019-01-27T17:00:20.140Z,97491.19
2019-01-27T17:02:51.602Z,97500.77
2019-01-27T17:05:22.095Z,97491.13
2019-01-27T17:07:52.713Z,97491.94
2019-01-27T17:10:26.242Z,97484.70
2019-01-27T17:12:57.029Z,97488.13
2019-01-27T17:15:29.625Z,97487.34
2019-01-27T17:18:00.921Z,97488.16
2019-01-27T17:20:31.698Z,97486.52
2019-01-27T17:23:02.580Z,97479.70
2019-01-27T17:25:34.566Z,97479.70
2019-01-27T17:28:06.834Z,97481.00
2019-01-27T17:30:37.674Z,97470.50
2019-01-27T17:33:09.611Z,97467.86
2019-01-27T17:35:43.141Z,97472.48
2019-01-27T17:38:13.667Z,97459.05
2019-01-27T17:40:44.736Z,97461.56
2019-01-27T17:43:16.769Z,97460.77
2019-01-27T17:45:47.150Z,97465.83
2019-01-27T17:48:17.837Z,97466.70
2019-01-27T17:50:48.793Z,97461.22
2019-01-27T17:53:20.939Z,97461.22
2019-01-27T17:55:52.345Z,97462.77
2019-01-27T17:58:44.988Z,97470.70
2019-01-27T18:01:37.730Z,97469.02
2019-01-27T18:04:28.809Z,97476.64
2019-01-27T18:07:19.703Z,97485.87
2019-01-27T18:10:09.733Z,97481.19
2019-01-27T18:13:10.662Z,97474.48
2019-01-27T18:15:44.131Z,97484.62
2019-01-27T18:18:15.663Z,97476.64
2019-01-27T18:20:48.516Z,97468.28
2019-01-27T18:23:19.523Z,97477.09
2019-01-27T18:25:50.344Z,97476.67
2019-01-27T18:28:20.943Z,97488.39
2019-01-27T18:30:52.077Z,97482.94
2019-01-27T18:33:23.513Z,97485.42
2019-01-27T18:35:54.032Z,97488.39
2019-01-27T18:38:25.280Z,97493.43
2019-01-27T18:40:56.011Z,97491.75
2019-01-27T18:43:26.880Z,97486.68
2019-01-27T18:45:58.282Z,97484.97
2019-01-27T18:48:29.309Z,97482.91
2019-01-27T18:51:00.075Z,97486.30
2019-01-27T18:53:48.398Z,97490.42
2019-01-27T18:56:47.772Z,97492.10
2019-01-27T18:59:27.271Z,97490.45
2019-01-27T19:02:23.190Z,97482.09
2019-01-27T19:05:13.240Z,97482.94
2019-01-27T19:08:06.949Z,97481.67
2019-01-27T19:11:08.048Z,97480.80
2019-01-27T19:14:04.045Z,97480.35
2019-01-27T19:16:54.094Z,97482.06
2019-01-27T19:19:34.457Z,97477.87
2019-01-27T19:22:23.441Z,97475.67
2019-01-27T19:25:38.277Z,97475.28
2019-01-27T19:28:28.696Z,97481.19
2019-01-27T19:31:08.242Z,97477.87
2019-01-27T19:34:09.448Z,97478.70
2019-01-27T19:36:47.237Z,97478.73
2019-01-27T19:39:48.777Z,97470.80
2019-01-27T19:42:38.780Z,97471.61
2019-01-27T19:45:29.575Z,97470.80
2019-01-27T19:48:19.795Z,97470.80
2019-01-27T19:51:11.746Z,97472.86
2019-01-27T19:54:04.367Z,97479.22
2019-01-27T19:56:54.868Z,97480.55
2019-01-27T20:00:03.675Z,97477.58
2019-01-27T20:02:53.416Z,97474.45
2019-01-27T20:06:01.377Z,97469.05
2019-01-27T20:08:56.365Z,97458.14
2019-01-27T20:11:58.113Z,97454.11
2019-01-27T20:15:03.140Z,97453.37
2019-01-27T20:17:45.908Z,97462.30
2019-01-27T20:20:48.293Z,97466.95
2019-01-27T20:23:37.790Z,97466.97
2019-01-27T20:26:20.127Z,97471.67
2019-01-27T20:29:00.432Z,97464.16
2019-01-27T20:31:50.808Z,97458.28
2019-01-27T20:34:35.401Z,97470.47
2019-01-27T20:37:36.163Z,97474.61
2019-01-27T20:40:28.185Z,97464.55
2019-01-27T20:43:13.533Z,97451.16
2019-01-27T20:46:06.316Z,97441.09
2019-01-27T20:48:51.089Z,97436.09
2019-01-27T20:51:36.443Z,97429.88
2019-01-27T20:54:26.038Z,97431.22
2019-01-27T20:57:15.985Z,97422.47
2019-01-27T20:59:59.818Z,97428.45
2019-01-27T21:02:51.521Z,97444.89
2019-01-27T21:05:32.947Z,97444.09
2019-01-27T21:08:18.739Z,97444.14
2019-01-27T21:11:15.441Z,97436.67
2019-01-27T21:14:02.794Z,97433.36
2019-01-27T21:16:41.395Z,97434.58
2019-01-27T21:19:28.564Z,97440.03
2019-01-27T21:22:00.577Z,97437.56
2019-01-27T21:24:32.602Z,97438.02
2019-01-27T21:27:06.523Z,97430.88
2019-01-27T21:29:36.732Z,97428.83
2019-01-27T21:32:07.792Z,97425.90
2019-01-27T21:34:38.612Z,97425.08
2019-01-27T21:37:11.803Z,97424.25
2019-01-27T21:39:44.830Z,97424.23
2019-01-27T21:42:15.292Z,97420.00
2019-01-27T21:44:45.694Z,97418.72
2019-01-27T21:47:17.826Z,97418.26
2019-01-27T21:49:50.855Z,97425.33
2019-01-27T21:52:25.720Z,97417.70
2019-01-27T21:54:58.883Z,97428.22
2019-01-27T21:57:29.878Z,97432.03
2019-01-27T22:00:01.274Z,97431.27
2019-01-27T22:02:33.815Z,97432.98
2019-01-27T22:05:06.422Z,97430.05
2019-01-27T22:07:38.947Z,97427.98
2019-01-27T22:10:12.914Z,97421.54
2019-01-27T22:12:43.979Z,97422.83
2019-01-27T22:15:14.718Z,97418.26
2019-01-27T22:17:45.882Z,97419.52
2019-01-27T22:20:17.848Z,97421.17
2019-01-27T22:22:50.842Z,97425.41
2019-01-27T22:25:21.647Z,97420.31
2019-01-27T22:27:52.076Z,97415.28
2019-01-27T22:30:23.689Z,97425.35
2019-01-27T22:32:54.494Z,97424.52
2019-01-27T22:35:25.404Z,97423.21
2019-01-27T22:37:58.894Z,97422.77
2019-01-27T22:40:32.375Z,97412.70
2019-01-27T22:43:04.013Z,97416.81
2019-01-27T22:45:43.927Z,97406.21
2019-01-27T22:48:14.828Z,97409.98
2019-01-27T22:50:46.031Z,97405.38
2019-01-27T22:53:17.201Z,97402.78
2019-01-27T22:55:48.144Z,97403.17
2019-01-27T22:58:19.078Z,97398.55
2019-01-27T23:01:05.499Z,97393.02
2019-01-27T23:03:38.517Z,97392.54
2019-01-27T23:06:10.580Z,97385.02
2019-01-27T23:08:41.111Z,97383.44
2019-01-27T23:11:12.052Z,97388.50
2019-01-27T23:13:43.207Z,97385.59
2019-01-27T23:16:20.642Z,97388.11
2019-01-27T23:18:53.232Z,97394.42
2019-01-27T23:21:24.103Z,97395.17
2019-01-27T23:23:56.046Z,97395.20
2019-01-27T23:26:51.128Z,97394.76
2019-01-27T23:29:24.376Z,97392.57
2019-01-27T23:31:55.428Z,97389.55
2019-01-27T23:34:26.137Z,97392.45
2019-01-27T23:36:57.352Z,97384.38
2019-01-27T23:39:29.897Z,97380.58
2019-01-27T23:42:02.469Z,97377.61
2019-01-27T23:44:34.196Z,97380.06
2019-01-27T23:47:07.202Z,97373.34
2019-01-27T23:49:38.100Z,97364.40
2019-01-27T23:52:10.762Z,97361.42
2019-01-27T23:54:43.249Z,97362.72
2019-01-27T23:57:14.765Z,97357.69
2019-01-27T23:59:47.324Z,97353.45
